Time;durP1;ratioP1;P1;durP2;ratioP2;P2;SDS_P1;SDS_P2;PMS_P1;PMS_P2;Temp;Humidity;BMP_temperature;BMP_pressure;BME280_temperature;BME280_humidity;BME280_pressure;Samples;Min_cycle;Max_cycle;Signal;HPM_P1;HPM_P2
2021/07/27 00:01:12;;;;;;;1.52;1.30;;;19.60;99.90;;;;;;4939320;28;20200;-77
2021/07/27 00:03:39;;;;;;;1.90;1.48;;;19.60;99.90;;;;;;4937868;29;20205;-78
2021/07/27 00:06:10;;;;;;;2.22;1.23;;;19.50;99.90;;;;;;4936531;29;20265;-78
2021/07/27 00:08:37;;;;;;;1.45;1.20;;;19.50;99.90;;;;;;4936687;28;20637;-78
2021/07/27 00:11:10;;;;;;;2.13;1.33;;;19.50;99.90;;;;;;4935054;29;20182;-77
2021/07/27 00:13:36;;;;;;;1.85;1.20;;;19.40;99.90;;;;;;4938458;29;20214;-78
2021/07/27 00:16:03;;;;;;;1.58;1.30;;;19.30;99.90;;;;;;4939613;29;20269;-78
2021/07/27 00:18:30;;;;;;;2.15;1.75;;;19.30;99.90;;;;;;4937253;29;20213;-78
2021/07/27 00:20:59;;;;;;;3.38;1.60;;;19.20;99.90;;;;;;4935154;29;20224;-78
2021/07/27 00:23:25;;;;;;;3.25;1.42;;;19.30;99.90;;;;;;4934881;29;20257;-78
2021/07/27 00:25:50;;;;;;;1.38;1.20;;;19.30;99.90;;;;;;4938829;29;20209;-77
2021/07/27 00:28:16;;;;;;;1.40;1.30;;;19.20;99.90;;;;;;4938523;29;20200;-77
2021/07/27 00:30:42;;;;;;;1.65;1.30;;;19.20;99.90;;;;;;4938021;28;20201;-79
2021/07/27 00:33:08;;;;;;;1.63;1.52;;;19.30;99.90;;;;;;4936589;29;20584;-78
2021/07/27 00:35:34;;;;;;;1.80;1.20;;;19.30;99.90;;;;;;4938514;28;20202;-78
2021/07/27 00:38:08;;;;;;;2.67;1.85;;;19.20;99.90;;;;;;4939385;28;20194;-78
2021/07/27 00:40:41;;;;;;;1.67;1.52;;;19.10;99.90;;;;;;4938881;29;20181;-78
2021/07/27 00:43:10;;;;;;;1.60;1.50;;;19.10;99.90;;;;;;4936516;29;20280;-78
2021/07/27 00:45:35;;;;;;;2.22;1.30;;;19.10;99.90;;;;;;4937757;29;20213;-78
2021/07/27 00:48:01;;;;;;;1.90;1.50;;;19.00;99.90;;;;;;4938539;28;20657;-77
2021/07/27 00:50:27;;;;;;;1.90;1.30;;;18.90;99.90;;;;;;4932716;29;20221;-78
2021/07/27 00:52:59;;;;;;;2.08;1.80;;;18.90;99.90;;;;;;4935752;28;20220;-77
2021/07/27 00:55:28;;;;;;;1.65;1.48;;;18.80;99.90;;;;;;4939150;29;20212;-77
2021/07/27 00:57:55;;;;;;;1.95;1.73;;;18.80;99.90;;;;;;4933494;29;20186;-80
2021/07/27 01:00:21;;;;;;;1.73;1.42;;;18.80;99.90;;;;;;4938622;29;20193;-78
2021/07/27 01:02:47;;;;;;;1.40;1.30;;;18.80;99.90;;;;;;4935791;29;20687;-78
2021/07/27 01:05:13;;;;;;;1.52;1.20;;;18.80;99.90;;;;;;4937337;28;20210;-77
2021/07/27 01:07:40;;;;;;;1.95;1.60;;;18.80;99.90;;;;;;4939709;29;20189;-77
2021/07/27 01:10:08;;;;;;;1.63;1.50;;;18.80;99.90;;;;;;4937516;29;20190;-78
2021/07/27 01:12:34;;;;;;;1.98;1.38;;;18.70;99.90;;;;;;4933215;29;20232;-78
2021/07/27 01:15:00;;;;;;;1.65;1.50;;;18.70;99.90;;;;;;4938713;28;20212;-77
2021/07/27 01:17:26;;;;;;;1.45;1.30;;;18.80;99.90;;;;;;4935595;28;20614;-77
2021/07/27 01:19:58;;;;;;;2.38;1.50;;;18.90;99.90;;;;;;4937561;29;20185;-77
2021/07/27 01:43:50;;;;;;;1.70;1.50;;;18.50;99.90;;;;;;4936680;29;20185;-77
2021/07/27 01:46:17;;;;;;;3.63;1.58;;;18.40;99.90;;;;;;4935635;28;20214;-77
2021/07/27 01:48:44;;;;;;;1.98;1.52;;;18.40;99.90;;;;;;4936367;29;20381;-77
2021/07/27 01:51:10;;;;;;;1.88;1.67;;;18.40;99.90;;;;;;4935523;28;20196;-77
2021/07/27 01:53:44;;;;;;;1.88;1.40;;;18.30;99.90;;;;;;4934408;29;20594;-76
2021/07/27 01:56:10;;;;;;;2.20;1.70;;;18.20;99.90;;;;;;4933527;29;20744;-77
2021/07/27 01:58:36;;;;;;;1.83;1.50;;;18.20;99.90;;;;;;4935396;29;20205;-77
2021/07/27 02:01:02;;;;;;;1.65;1.48;;;18.10;99.90;;;;;;4935875;28;20637;-77
2021/07/27 02:03:27;;;;;;;1.92;1.73;;;18.10;99.90;;;;;;4940096;29;20687;-77
2021/07/27 02:05:53;;;;;;;2.45;1.50;;;18.20;99.90;;;;;;4940754;28;20687;-77
2021/07/27 02:08:18;;;;;;;1.73;1.45;;;18.10;99.90;;;;;;4938497;29;20665;-78
2021/07/27 02:10:49;;;;;;;2.58;2.00;;;18.10;99.90;;;;;;4941446;29;20192;-77
2021/07/27 02:13:27;;;;;;;2.03;1.55;;;18.00;99.90;;;;;;4941082;29;20305;-77
2021/07/27 02:15:52;;;;;;;2.53;1.52;;;17.90;99.90;;;;;;4936420;29;20574;-78
2021/07/27 02:18:18;;;;;;;1.38;1.27;;;18.00;99.90;;;;;;4940503;29;20193;-78
2021/07/27 02:20:43;;;;;;;1.63;1.52;;;17.90;99.90;;;;;;4940252;29;20183;-78
2021/07/27 02:23:09;;;;;;;1.90;1.30;;;17.80;99.90;;;;;;4939600;28;20205;-78
2021/07/27 02:25:35;;;;;;;3.05;2.10;;;17.90;99.90;;;;;;4937467;29;20206;-79
2021/07/27 02:28:01;;;;;;;1.50;1.40;;;17.80;99.90;;;;;;4940421;28;20640;-77
2021/07/27 02:30:29;;;;;;;1.35;1.20;;;17.80;99.90;;;;;;4942779;28;20282;-78
2021/07/27 02:32:54;;;;;;;2.10;1.60;;;17.70;99.90;;;;;;4941240;29;20296;-78
2021/07/27 02:35:22;;;;;;;1.83;1.52;;;17.60;99.90;;;;;;4941876;28;20344;-77
2021/07/27 02:37:47;;;;;;;1.85;1.35;;;17.50;99.90;;;;;;4957884;28;20193;-78
2021/07/27 02:40:13;;;;;;;1.60;1.35;;;17.40;99.90;;;;;;4940288;28;20210;-77
2021/07/27 02:42:39;;;;;;;1.45;1.35;;;17.30;99.90;;;;;;4938458;29;20197;-79
2021/07/27 02:45:12;;;;;;;2.20;1.80;;;17.40;99.90;;;;;;4946922;28;20209;-78
2021/07/27 02:47:46;;;;;;;1.65;1.40;;;17.30;99.90;;;;;;4937492;28;20190;-78
2021/07/27 02:50:12;;;;;;;1.45;1.35;;;17.30;99.90;;;;;;4942985;28;20189;-77
2021/07/27 02:52:39;;;;;;;1.70;1.55;;;17.40;99.90;;;;;;4937857;28;20216;-78
2021/07/27 02:55:05;;;;;;;2.08;1.70;;;17.40;99.90;;;;;;4942018;28;20205;-78
2021/07/27 02:57:31;;;;;;;2.10;1.83;;;17.30;99.90;;;;;;4940267;28;20196;-77
2021/07/27 02:59:56;;;;;;;1.40;1.20;;;17.30;99.90;;;;;;4938482;29;20174;-78
2021/07/27 03:02:28;;;;;;;1.65;1.30;;;17.30;99.90;;;;;;4940168;28;20244;-77
2021/07/27 03:04:53;;;;;;;2.25;1.50;;;17.30;99.90;;;;;;4939581;28;20206;-78
2021/07/27 03:07:20;;;;;;;2.65;1.67;;;17.20;99.90;;;;;;4939196;29;20186;-77
2021/07/27 03:10:17;;;;;;;4.90;1.50;;;17.30;99.90;;;;;;4938508;29;20194;-78
2021/07/27 03:12:31;;;;;;;2.10;1.50;;;17.20;99.90;;;;;;4937977;28;20699;-78
2021/07/27 03:15:01;;;;;;;1.55;1.45;;;17.20;99.90;;;;;;4933031;29;20252;-78
2021/07/27 03:17:26;;;;;;;1.65;1.55;;;17.20;99.90;;;;;;4940485;29;20683;-77
2021/07/27 03:19:52;;;;;;;1.77;1.50;;;17.20;99.90;;;;;;4940700;28;20194;-76
2021/07/27 03:22:19;;;;;;;2.50;1.50;;;17.10;99.90;;;;;;4938634;29;20190;-77
2021/07/27 03:24:45;;;;;;;1.73;1.40;;;17.10;99.90;;;;;;4937446;28;20274;-77
2021/07/27 03:27:11;;;;;;;2.15;1.67;;;17.10;99.90;;;;;;4940516;29;20272;-78
2021/07/27 03:29:37;;;;;;;1.63;1.52;;;17.10;99.90;;;;;;4939078;29;20682;-77
2021/07/27 03:32:03;;;;;;;1.60;1.50;;;17.10;99.90;;;;;;4942293;28;20224;-77
2021/07/27 03:34:28;;;;;;;2.13;1.67;;;17.10;99.90;;;;;;4940282;29;20269;-77
2021/07/27 03:36:54;;;;;;;3.10;1.90;;;17.10;99.90;;;;;;4938552;28;20289;-77
2021/07/27 03:39:19;;;;;;;1.58;1.35;;;17.00;99.90;;;;;;4938975;29;20193;-78
2021/07/27 03:41:45;;;;;;;1.83;1.60;;;17.10;99.90;;;;;;4938564;29;20562;-77
2021/07/27 03:44:10;;;;;;;1.48;1.20;;;17.20;99.90;;;;;;4938910;29;20205;-77
2021/07/27 03:46:50;;;;;;;3.00;1.45;;;17.20;99.90;;;;;;4938420;28;20217;-77
2021/07/27 03:49:16;;;;;;;1.38;1.23;;;17.10;99.90;;;;;;4934980;29;20190;-77
2021/07/27 03:51:42;;;;;;;1.50;1.40;;;17.20;99.90;;;;;;4940319;29;20200;-77
2021/07/27 03:54:08;;;;;;;1.45;1.33;;;17.20;99.90;;;;;;4937053;28;20174;-77
2021/07/27 03:56:34;;;;;;;1.77;1.40;;;17.20;99.90;;;;;;4939196;29;20270;-78
2021/07/27 03:59:03;;;;;;;2.15;1.75;;;17.20;99.90;;;;;;4941706;29;20189;-77
2021/07/27 04:01:29;;;;;;;1.98;1.63;;;17.10;99.90;;;;;;4939037;29;20241;-77
2021/07/27 04:03:55;;;;;;;1.80;1.50;;;17.20;99.90;;;;;;4941335;28;20519;-78
2021/07/27 04:06:20;;;;;;;2.38;1.40;;;17.30;99.90;;;;;;4938271;28;20277;-77
2021/07/27 04:08:46;;;;;;;2.45;1.90;;;17.30;99.90;;;;;;4936819;29;20213;-77
2021/07/27 04:11:13;;;;;;;1.92;1.60;;;17.50;99.90;;;;;;4938129;28;20190;-78
2021/07/27 04:13:38;;;;;;;1.50;1.40;;;17.50;99.90;;;;;;4938271;29;20264;-78
2021/07/27 04:16:04;;;;;;;2.05;1.55;;;17.60;99.90;;;;;;4936497;29;20581;-77
2021/07/27 04:18:30;;;;;;;1.90;1.40;;;17.60;99.90;;;;;;4938245;29;20189;-77
2021/07/27 04:21:02;;;;;;;1.90;1.50;;;17.70;99.90;;;;;;4935030;29;20607;-77
2021/07/27 04:23:28;;;;;;;1.77;1.60;;;17.80;99.90;;;;;;4937323;28;20260;-77
2021/07/27 04:25:54;;;;;;;2.22;1.70;;;18.00;99.90;;;;;;4936917;29;20228;-78
2021/07/27 04:28:20;;;;;;;2.40;1.85;;;18.20;99.90;;;;;;4937292;29;20300;-77
2021/07/27 04:30:45;;;;;;;1.83;1.48;;;18.30;99.90;;;;;;4936837;28;20186;-77
2021/07/27 04:33:11;;;;;;;2.08;1.58;;;18.40;99.90;;;;;;4938630;28;20221;-77
2021/07/27 04:35:39;;;;;;;1.77;1.50;;;18.60;99.90;;;;;;4934640;28;20743;-77
2021/07/27 04:38:06;;;;;;;2.10;1.52;;;18.80;99.90;;;;;;4940024;29;20241;-78
2021/07/27 04:40:31;;;;;;;2.00;1.60;;;19.00;99.90;;;;;;4937974;28;21185;-77
2021/07/27 04:42:57;;;;;;;1.42;1.33;;;19.30;99.90;;;;;;4937036;28;20267;-77
2021/07/27 04:45:28;;;;;;;1.40;1.20;;;19.50;99.90;;;;;;4936611;29;20210;-78
2021/07/27 04:47:54;;;;;;;2.65;1.42;;;19.80;99.90;;;;;;4938029;29;20189;-77
2021/07/27 04:50:20;;;;;;;1.15;0.98;;;20.00;99.90;;;;;;4937756;29;20193;-78
2021/07/27 04:52:58;;;;;;;1.90;1.25;;;20.10;99.90;;;;;;4936899;29;20265;-77
2021/07/27 04:55:25;;;;;;;2.25;1.58;;;20.30;99.90;;;;;;4936471;28;20208;-77
2021/07/27 04:57:51;;;;;;;1.42;1.30;;;21.00;99.90;;;;;;4935318;29;20265;-77
2021/07/27 05:00:19;;;;;;;1.85;1.50;;;21.50;99.90;;;;;;4939085;29;20327;-77
2021/07/27 05:02:45;;;;;;;1.50;1.20;;;21.80;99.90;;;;;;4933752;28;20273;-77
2021/07/27 05:05:10;;;;;;;1.30;1.20;;;21.70;99.90;;;;;;4936113;28;20249;-77
2021/07/27 05:07:36;;;;;;;1.98;1.30;;;21.50;99.90;;;;;;4938027;28;20248;-77
2021/07/27 05:10:04;;;;;;;1.40;1.10;;;21.30;99.90;;;;;;4935599;29;20299;-78
2021/07/27 05:12:29;;;;;;;1.38;1.20;;;21.20;99.90;;;;;;4935119;29;20206;-77
2021/07/27 05:14:55;;;;;;;1.77;1.52;;;21.10;99.90;;;;;;4943240;28;20197;-79
2021/07/27 05:17:20;;;;;;;1.23;1.13;;;21.00;99.90;;;;;;4935355;28;20197;-78
2021/07/27 05:19:54;;;;;;;1.70;1.60;;;20.90;99.90;;;;;;4938587;29;20181;-78
2021/07/27 05:22:21;;;;;;;1.27;1.10;;;20.90;99.90;;;;;;4935889;29;20198;-78
2021/07/27 05:24:47;;;;;;;1.30;1.20;;;20.90;99.90;;;;;;4936406;28;20188;-78
2021/07/27 05:27:12;;;;;;;1.48;1.20;;;21.10;99.90;;;;;;4936105;29;20186;-77
2021/07/27 05:29:38;;;;;;;1.80;1.15;;;21.30;99.90;;;;;;4929415;28;20190;-76
2021/07/27 05:32:04;;;;;;;1.45;1.20;;;21.30;99.90;;;;;;4935448;28;20216;-77
2021/07/27 05:34:30;;;;;;;1.73;1.20;;;21.30;99.90;;;;;;4938837;28;20192;-78
2021/07/27 05:36:56;;;;;;;2.65;1.30;;;21.40;99.90;;;;;;4939000;29;20210;-77
2021/07/27 05:39:21;;;;;;;1.77;1.00;;;21.50;99.90;;;;;;4945919;29;20260;-77
2021/07/27 05:41:47;;;;;;;1.40;1.17;;;21.40;99.90;;;;;;4943463;29;20178;-77
2021/07/27 05:44:12;;;;;;;1.95;1.40;;;21.30;99.90;;;;;;4938334;28;20184;-77
2021/07/27 05:46:38;;;;;;;1.40;1.30;;;21.30;99.90;;;;;;4939160;29;20719;-78
2021/07/27 05:49:08;;;;;;;2.33;1.65;;;21.20;99.90;;;;;;4940187;29;20273;-77
2021/07/27 05:51:33;;;;;;;2.58;1.50;;;21.10;99.90;;;;;;4941839;28;20184;-77
2021/07/27 05:53:59;;;;;;;1.50;1.40;;;20.80;99.90;;;;;;4943439;29;20213;-77
2021/07/27 05:56:24;;;;;;;1.98;1.70;;;20.70;99.90;;;;;;4941797;28;20282;-77
2021/07/27 05:58:50;;;;;;;1.63;1.23;;;20.60;99.90;;;;;;4940924;29;20268;-77
2021/07/27 06:01:16;;;;;;;3.08;1.40;;;20.60;99.90;;;;;;4940305;29;20614;-77
2021/07/27 06:03:41;;;;;;;2.05;1.30;;;20.70;99.90;;;;;;4940035;29;20182;-78
2021/07/27 06:06:07;;;;;;;1.38;1.13;;;20.80;99.90;;;;;;4941602;28;20210;-78
2021/07/27 06:08:32;;;;;;;1.83;1.50;;;20.90;99.90;;;;;;4942235;29;20656;-77
2021/07/27 06:10:58;;;;;;;1.33;1.23;;;20.90;99.90;;;;;;4941687;29;20612;-77
2021/07/27 06:13:24;;;;;;;1.20;1.10;;;21.20;99.90;;;;;;4944588;28;20236;-78
2021/07/27 06:15:49;;;;;;;1.30;1.20;;;21.20;99.90;;;;;;4941393;29;20225;-77
2021/07/27 06:18:15;;;;;;;1.48;1.38;;;21.30;99.90;;;;;;4940402;29;20205;-77
2021/07/27 06:20:41;;;;;;;1.77;1.35;;;21.30;99.90;;;;;;4945028;29;20192;-77
2021/07/27 06:23:06;;;;;;;2.00;1.25;;;21.40;99.90;;;;;;4942585;29;20206;-77
2021/07/27 06:25:32;;;;;;;2.55;1.30;;;21.60;99.90;;;;;;4942939;29;20847;-78
2021/07/27 06:27:57;;;;;;;1.58;1.23;;;21.90;99.90;;;;;;4939606;29;20547;-78
2021/07/27 06:30:23;;;;;;;1.63;1.50;;;22.10;99.90;;;;;;4942276;28;20184;-78
2021/07/27 06:32:48;;;;;;;1.33;1.15;;;22.40;99.90;;;;;;4937256;29;20332;-77
2021/07/27 06:35:15;;;;;;;2.45;1.38;;;23.00;99.90;;;;;;4941242;28;20565;-77
2021/07/27 06:37:40;;;;;;;1.70;1.38;;;23.70;99.90;;;;;;4938731;28;20185;-78
2021/07/27 06:40:06;;;;;;;1.42;1.17;;;24.10;99.90;;;;;;4936419;29;20231;-78
2021/07/27 06:42:33;;;;;;;1.67;1.40;;;24.60;99.90;;;;;;4939521;29;20189;-77
2021/07/27 06:44:58;;;;;;;2.08;1.40;;;24.90;99.90;;;;;;4943621;28;20668;-78
2021/07/27 06:47:24;;;;;;;1.67;1.27;;;24.90;99.90;;;;;;4940558;28;20201;-76
2021/07/27 06:49:50;;;;;;;1.63;1.40;;;24.50;99.90;;;;;;4938967;29;20189;-76
2021/07/27 06:52:20;;;;;;;1.35;1.13;;;24.20;99.90;;;;;;4946379;29;20210;-76
2021/07/27 06:54:46;;;;;;;1.80;1.48;;;24.30;99.90;;;;;;4937405;29;20186;-76
2021/07/27 06:57:11;;;;;;;1.65;1.55;;;24.20;99.90;;;;;;4939060;28;20189;-76
2021/07/27 06:59:37;;;;;;;1.42;1.27;;;24.00;99.90;;;;;;4954624;28;20186;-76
2021/07/27 07:02:03;;;;;;;1.35;1.25;;;23.90;99.90;;;;;;4936099;29;20791;-76
2021/07/27 07:04:28;;;;;;;1.52;1.42;;;24.00;99.90;;;;;;4937688;29;20186;-76
2021/07/27 07:06:54;;;;;;;1.67;1.50;;;23.90;99.90;;;;;;4936073;28;20218;-75
2021/07/27 07:09:19;;;;;;;1.55;1.40;;;23.80;99.90;;;;;;4936596;28;20267;-76
2021/07/27 07:11:45;;;;;;;1.75;1.60;;;23.70;99.90;;;;;;4934654;28;20190;-76
2021/07/27 07:14:10;;;;;;;1.23;1.02;;;23.90;99.90;;;;;;4933330;29;20212;-76
2021/07/27 07:16:36;;;;;;;1.85;1.38;;;24.00;99.90;;;;;;4898827;28;1075176;-76
2021/07/27 07:19:01;;;;;;;1.45;1.20;;;24.20;99.90;;;;;;4939694;28;20218;-76
2021/07/27 07:21:27;;;;;;;1.92;1.65;;;24.30;99.90;;;;;;4933700;29;20218;-76
2021/07/27 07:23:53;;;;;;;2.17;1.70;;;24.40;99.90;;;;;;4937820;29;20197;-76
2021/07/27 07:26:18;;;;;;;1.75;1.40;;;24.30;99.90;;;;;;4934668;28;20228;-76
2021/07/27 07:28:44;;;;;;;1.58;1.30;;;24.50;99.90;;;;;;4936078;28;20182;-76
2021/07/27 07:31:16;;;;;;;1.73;1.60;;;24.70;99.90;;;;;;4951724;28;20218;-75
2021/07/27 07:33:43;;;;;;;2.15;1.95;;;25.00;99.90;;;;;;4938447;29;20633;-75
2021/07/27 07:36:12;;;;;;;1.75;1.35;;;25.20;99.90;;;;;;4939485;28;20204;-75
2021/07/27 07:38:39;;;;;;;2.08;1.60;;;25.30;99.90;;;;;;4939118;29;20217;-75
2021/07/27 07:41:09;;;;;;;1.40;1.30;;;25.40;99.90;;;;;;4936576;29;20189;-76
2021/07/27 07:43:35;;;;;;;1.60;1.50;;;25.30;99.90;;;;;;4937518;29;20193;-75
2021/07/27 07:46:01;;;;;;;1.88;1.45;;;25.30;99.90;;;;;;4936131;28;20289;-76
2021/07/27 07:48:27;;;;;;;1.50;1.30;;;25.00;99.90;;;;;;4936078;29;20217;-76
2021/07/27 07:50:52;;;;;;;1.70;1.50;;;24.90;99.90;;;;;;4939357;29;20241;-75
2021/07/27 07:53:18;;;;;;;1.50;1.40;;;25.10;99.90;;;;;;4938440;29;20218;-75
2021/07/27 07:55:44;;;;;;;1.65;1.50;;;25.40;99.90;;;;;;4937871;28;20319;-74
2021/07/27 07:58:10;;;;;;;1.40;1.30;;;25.70;99.90;;;;;;4933666;28;20346;-75
2021/07/27 08:00:35;;;;;;;2.17;1.58;;;25.70;99.90;;;;;;4936447;29;20193;-76
2021/07/27 08:03:05;;;;;;;2.45;1.33;;;25.80;99.90;;;;;;4938459;28;20182;-76
2021/07/27 08:05:30;;;;;;;1.60;1.40;;;25.90;99.90;;;;;;4937604;28;20209;-76
2021/07/27 08:07:56;;;;;;;1.63;1.52;;;26.10;99.90;;;;;;4936034;29;20198;-76
2021/07/27 08:10:22;;;;;;;1.35;1.25;;;26.30;99.90;;;;;;4945295;28;20214;-75
2021/07/27 08:12:48;;;;;;;1.60;1.50;;;26.50;99.90;;;;;;4935874;29;20288;-77
2021/07/27 08:15:17;;;;;;;1.67;1.58;;;26.70;99.90;;;;;;4935945;29;20221;-78
2021/07/27 08:17:44;;;;;;;1.83;1.63;;;26.70;99.90;;;;;;4936035;28;20423;-76
2021/07/27 08:20:10;;;;;;;1.77;1.67;;;26.90;99.90;;;;;;4931025;29;20186;-75
2021/07/27 08:22:40;;;;;;;2.10;1.65;;;26.70;99.90;;;;;;4936746;29;20435;-75
2021/07/27 08:25:07;;;;;;;1.90;1.70;;;27.00;99.90;;;;;;4939129;28;20201;-76
2021/07/27 08:27:33;;;;;;;1.88;1.60;;;27.10;99.90;;;;;;4938272;28;20186;-75
2021/07/27 08:29:58;;;;;;;12.90;2.30;;;26.90;99.90;;;;;;4936025;29;20215;-77
2021/07/27 08:32:24;;;;;;;3.05;1.90;;;26.90;99.90;;;;;;4933653;28;20286;-77
2021/07/27 08:34:50;;;;;;;1.77;1.67;;;26.80;99.90;;;;;;4951957;28;20188;-75
2021/07/27 08:37:15;;;;;;;2.30;2.08;;;26.70;99.90;;;;;;4934013;29;20190;-76
2021/07/27 08:39:41;;;;;;;2.03;1.80;;;26.70;99.90;;;;;;4936913;29;20220;-77
2021/07/27 08:42:07;;;;;;;1.98;1.77;;;26.50;99.90;;;;;;4940996;28;20610;-75
2021/07/27 08:44:36;;;;;;;1.60;1.50;;;26.40;99.90;;;;;;4938190;29;20252;-77
2021/07/27 08:47:06;;;;;;;1.88;1.73;;;26.50;99.90;;;;;;4938391;29;20190;-77
2021/07/27 08:49:32;;;;;;;2.40;2.20;;;26.60;99.90;;;;;;4933382;29;20190;-75
2021/07/27 08:51:59;;;;;;;1.70;1.60;;;26.60;99.90;;;;;;4938569;28;20190;-76
2021/07/27 08:54:26;;;;;;;1.88;1.73;;;26.50;99.90;;;;;;4933290;29;20190;-77
2021/07/27 08:56:53;;;;;;;2.53;1.92;;;26.40;99.90;;;;;;4938118;29;20198;-77
2021/07/27 08:59:20;;;;;;;2.13;1.80;;;26.50;99.90;;;;;;4934781;29;20523;-77
2021/07/27 09:01:46;;;;;;;1.63;1.52;;;26.50;99.90;;;;;;4936651;29;20178;-77
2021/07/27 09:04:12;;;;;;;1.80;1.67;;;26.70;99.90;;;;;;4937490;29;20937;-77
2021/07/27 09:06:38;;;;;;;2.17;1.98;;;26.50;99.90;;;;;;4936503;29;20700;-77
2021/07/27 09:09:08;;;;;;;1.48;1.38;;;26.20;99.90;;;;;;4928167;28;20185;-76
2021/07/27 09:11:44;;;;;;;1.90;1.80;;;25.80;99.90;;;;;;4934456;29;20190;-76
2021/07/27 09:14:14;;;;;;;2.03;1.80;;;25.60;99.90;;;;;;4931859;29;20209;-76
2021/07/27 09:16:48;;;;;;;3.33;2.10;;;25.70;99.90;;;;;;4933373;29;20220;-76
2021/07/27 09:19:15;;;;;;;2.83;1.98;;;26.20;99.90;;;;;;4937707;29;20182;-76
2021/07/27 09:21:45;;;;;;;1.85;1.75;;;26.30;99.90;;;;;;4932802;29;20192;-76
2021/07/27 09:24:20;;;;;;;1.92;1.70;;;26.50;99.90;;;;;;4931746;29;20190;-76
2021/07/27 09:27:03;;;;;;;2.38;2.10;;;26.60;99.90;;;;;;4928568;29;20201;-75
2021/07/27 09:29:30;;;;;;;1.80;1.70;;;26.70;99.90;;;;;;4935172;28;20831;-76
2021/07/27 09:31:58;;;;;;;1.75;1.65;;;26.80;99.90;;;;;;4936789;29;20217;-77
2021/07/27 09:34:25;;;;;;;5.38;2.28;;;26.60;99.90;;;;;;4938040;28;20182;-76
2021/07/27 09:37:04;;;;;;;2.40;2.03;;;26.30;99.90;;;;;;4928552;29;20206;-76
2021/07/27 09:39:30;;;;;;;2.20;2.00;;;26.40;99.90;;;;;;4928729;29;20855;-77
2021/07/27 09:42:05;;;;;;;2.03;1.83;;;26.40;99.90;;;;;;4932200;29;20196;-76
2021/07/27 09:44:31;;;;;;;2.15;1.95;;;26.30;99.90;;;;;;4934777;28;20208;-78
2021/07/27 09:46:58;;;;;;;2.97;1.90;;;26.10;99.90;;;;;;4938983;28;20280;-80
2021/07/27 09:49:25;;;;;;;2.60;1.85;;;26.40;99.90;;;;;;4933684;29;20186;-77
2021/07/27 09:51:51;;;;;;;1.90;1.70;;;26.60;99.90;;;;;;4931281;29;20264;-77
2021/07/27 09:54:21;;;;;;;2.20;2.00;;;26.60;99.90;;;;;;4935329;28;20209;-77
2021/07/27 09:56:48;;;;;;;2.10;1.90;;;26.50;99.90;;;;;;4931975;28;20224;-76
2021/07/27 09:59:18;;;;;;;2.35;2.03;;;26.50;99.90;;;;;;4936307;29;20178;-81
2021/07/27 10:02:03;;;;;;;2.58;2.30;;;26.10;99.90;;;;;;4938480;29;20244;-81
2021/07/27 10:04:43;;;;;;;2.10;1.90;;;25.80;99.90;;;;;;4937136;29;20668;-80
2021/07/27 10:07:09;;;;;;;2.28;2.08;;;25.10;99.90;;;;;;4940955;28;20182;-79
2021/07/27 10:09:36;;;;;;;2.13;1.92;;;24.70;99.90;;;;;;4934036;29;20204;-80
2021/07/27 10:12:10;;;;;;;6.30;2.03;;;24.40;99.90;;;;;;4930155;29;20748;-77
2021/07/27 10:14:44;;;;;;;2.40;2.20;;;24.00;99.90;;;;;;4934358;29;20192;-78
2021/07/27 10:17:11;;;;;;;3.80;2.47;;;23.60;99.90;;;;;;4943809;28;20261;-77
2021/07/27 10:19:50;;;;;;;2.92;2.08;;;23.40;99.90;;;;;;4936098;29;20610;-76
2021/07/27 10:22:16;;;;;;;3.55;2.30;;;23.40;99.90;;;;;;4939354;28;20571;-77
2021/07/27 10:24:44;;;;;;;2.30;2.10;;;23.70;99.90;;;;;;4933614;29;20562;-77
2021/07/27 10:27:18;;;;;;;2.88;2.03;;;24.20;99.90;;;;;;4935085;28;20182;-77
2021/07/27 10:29:44;;;;;;;2.40;2.20;;;24.80;99.90;;;;;;4936312;29;20193;-78
2021/07/27 10:32:21;;;;;;;2.65;2.10;;;25.50;99.90;;;;;;4934025;29;20186;-77
2021/07/27 10:34:48;;;;;;;2.05;1.90;;;25.80;99.90;;;;;;4938761;28;20190;-78
2021/07/27 10:37:15;;;;;;;2.40;2.20;;;26.30;99.90;;;;;;4936242;29;20190;-79
2021/07/27 10:39:57;;;;;;;1.92;1.83;;;26.50;99.90;;;;;;4938752;28;20733;-79
2021/07/27 10:42:24;;;;;;;2.45;1.98;;;26.80;99.90;;;;;;4939842;29;20340;-80
2021/07/27 10:44:51;;;;;;;1.90;1.70;;;26.80;99.90;;;;;;4935204;29;20182;-77
2021/07/27 10:47:20;;;;;;;2.25;1.80;;;26.70;99.90;;;;;;4933347;29;20209;-77
2021/07/27 10:49:46;;;;;;;2.95;1.55;;;27.00;99.90;;;;;;4934011;28;20198;-76
2021/07/27 10:52:12;;;;;;;2.63;1.35;;;27.20;99.90;;;;;;4938938;28;20224;-76
2021/07/27 10:54:42;;;;;;;3.55;1.67;;;27.40;99.90;;;;;;4933658;28;20450;-76
2021/07/27 10:57:10;;;;;;;1.90;1.48;;;27.60;99.90;;;;;;4938426;28;20193;-76
2021/07/27 10:59:36;;;;;;;2.20;1.60;;;27.80;99.90;;;;;;4937641;29;20194;-77
2021/07/27 11:02:10;;;;;;;2.42;1.75;;;27.80;99.90;;;;;;4940666;29;20178;-77
2021/07/27 11:04:36;;;;;;;2.35;1.55;;;28.10;99.90;;;;;;4939115;28;20232;-77
2021/07/27 11:07:15;;;;;;;2.67;1.80;;;28.40;99.90;;;;;;4937227;29;20182;-76
2021/07/27 11:09:55;;;;;;;2.40;2.05;;;28.30;99.90;;;;;;4933856;29;20185;-77
2021/07/27 11:12:36;;;;;;;2.00;1.80;;;28.30;99.90;;;;;;4935279;29;20217;-76
2021/07/27 11:15:21;;;;;;;2.30;1.80;;;28.00;99.90;;;;;;4931647;28;20330;-76
2021/07/27 11:17:49;;;;;;;1.45;1.35;;;27.50;99.90;;;;;;4937765;29;20197;-76
2021/07/27 11:20:23;;;;;;;2.05;1.70;;;27.40;99.90;;;;;;4937423;29;20185;-76
2021/07/27 11:22:54;;;;;;;1.65;1.55;;;27.60;99.90;;;;;;4941397;28;20682;-76
2021/07/27 11:25:21;;;;;;;2.00;1.58;;;27.50;99.90;;;;;;4935243;29;20222;-76
2021/07/27 11:27:49;;;;;;;2.10;1.85;;;27.60;99.90;;;;;;4934867;28;20596;-76
2021/07/27 11:30:16;;;;;;;3.08;1.83;;;27.80;99.90;;;;;;4935206;29;20182;-76
2021/07/27 11:32:51;;;;;;;1.65;1.55;;;27.80;99.90;;;;;;4937544;28;20574;-75
2021/07/27 11:35:24;;;;;;;1.40;1.30;;;27.50;99.90;;;;;;4933148;29;20209;-76
2021/07/27 11:38:01;;;;;;;1.52;1.42;;;27.60;99.90;;;;;;4934540;29;20181;-76
2021/07/27 11:40:26;;;;;;;1.02;0.93;;;27.50;99.90;;;;;;4940665;28;20196;-76
2021/07/27 11:43:05;;;;;;;1.50;1.40;;;27.40;99.90;;;;;;4934395;29;20182;-77
2021/07/27 11:45:41;;;;;;;1.45;1.15;;;27.30;99.90;;;;;;4931550;28;20210;-75
2021/07/27 11:48:08;;;;;;;1.73;1.13;;;27.30;99.90;;;;;;4933873;28;20186;-76
2021/07/27 11:50:38;;;;;;;1.48;1.33;;;27.30;99.90;;;;;;4935826;29;20622;-78
2021/07/27 11:53:09;;;;;;;1.33;1.23;;;27.60;99.90;;;;;;4939805;29;20252;-78
2021/07/27 11:55:39;;;;;;;2.40;1.45;;;27.70;99.90;;;;;;4939676;28;20197;-78
2021/07/27 11:58:06;;;;;;;1.73;1.48;;;27.70;99.90;;;;;;4935222;29;20562;-78
2021/07/27 12:00:33;;;;;;;1.30;1.20;;;27.80;99.90;;;;;;4941811;29;20177;-78
2021/07/27 12:02:59;;;;;;;1.20;1.10;;;27.90;99.90;;;;;;4935390;29;20183;-78
2021/07/27 12:05:25;;;;;;;1.70;1.60;;;28.10;99.90;;;;;;4933350;29;20326;-78
2021/07/27 12:07:52;;;;;;;1.63;1.42;;;28.10;99.90;;;;;;4938132;28;20269;-78
2021/07/27 12:10:17;;;;;;;1.67;1.52;;;28.20;99.90;;;;;;4940165;29;20189;-78
2021/07/27 12:12:43;;;;;;;2.60;1.50;;;28.20;99.90;;;;;;4934332;29;20552;-78
2021/07/27 12:15:12;;;;;;;2.75;1.30;;;28.50;99.90;;;;;;4937083;29;20739;-78
2021/07/27 12:17:39;;;;;;;1.60;1.50;;;28.30;99.90;;;;;;4936946;29;20622;-78
2021/07/27 12:20:05;;;;;;;1.60;1.50;;;28.40;99.90;;;;;;4933294;29;20281;-78
2021/07/27 12:22:31;;;;;;;1.42;1.33;;;28.60;99.90;;;;;;4936706;28;20190;-78
2021/07/27 12:24:56;;;;;;;2.72;1.63;;;28.80;99.90;;;;;;4937477;28;20275;-78
2021/07/27 12:27:22;;;;;;;1.52;1.42;;;28.70;99.20;;;;;;4931357;28;20201;-78
2021/07/27 12:29:47;;;;;;;1.85;1.50;;;28.70;99.30;;;;;;4935712;29;20471;-77
2021/07/27 12:32:13;;;;;;;1.77;1.67;;;28.70;99.40;;;;;;4933429;29;20182;-78
2021/07/27 12:34:39;;;;;;;1.42;1.33;;;28.50;99.50;;;;;;4935779;29;20667;-78
2021/07/27 12:37:04;;;;;;;1.90;1.65;;;28.30;99.30;;;;;;4928674;29;20520;-78
2021/07/27 12:39:30;;;;;;;1.65;1.55;;;28.30;99.80;;;;;;4939703;29;20209;-78
2021/07/27 12:41:55;;;;;;;2.35;1.60;;;28.50;99.90;;;;;;4940245;29;20952;-77
2021/07/27 12:44:21;;;;;;;1.50;1.40;;;28.90;99.90;;;;;;4929838;28;20186;-77
2021/07/27 12:46:47;;;;;;;1.52;1.42;;;28.80;99.00;;;;;;4935417;28;20214;-78
2021/07/27 12:49:16;;;;;;;1.80;1.63;;;28.70;98.50;;;;;;4929789;29;20190;-77
2021/07/27 12:51:43;;;;;;;1.60;1.50;;;28.90;98.10;;;;;;4937079;29;20602;-78
2021/07/27 12:54:09;;;;;;;1.98;1.70;;;29.10;97.90;;;;;;4933833;28;20695;-77
2021/07/27 12:56:38;;;;;;;1.90;1.70;;;29.00;97.70;;;;;;4934220;28;20249;-77
2021/07/27 12:59:07;;;;;;;1.95;1.67;;;28.80;97.30;;;;;;4936557;28;20178;-77
2021/07/27 13:01:33;;;;;;;3.30;1.63;;;28.70;97.70;;;;;;4929026;28;20178;-77
2021/07/27 13:04:00;;;;;;;2.53;1.67;;;28.90;98.40;;;;;;4931634;29;20225;-77
2021/07/27 13:06:26;;;;;;;1.75;1.42;;;29.00;98.20;;;;;;4939910;28;20256;-77
2021/07/27 13:08:51;;;;;;;1.70;1.60;;;29.00;98.30;;;;;;4933774;29;20492;-77